createdAt,value
2017-08-17T00:01:05.522Z,19.52
2017-08-17T00:03:33.064Z,19.51
2017-08-17T00:06:00.237Z,19.52
2017-08-17T00:08:27.675Z,19.51
2017-08-17T00:10:54.859Z,19.51
2017-08-17T00:13:22.043Z,19.50
2017-08-17T00:15:49.245Z,19.52
2017-08-17T00:18:16.426Z,19.51
2017-08-17T00:20:43.596Z,19.51
2017-08-17T00:23:10.769Z,19.51
2017-08-17T00:25:38.273Z,19.51
2017-08-17T00:28:05.742Z,19.51
2017-08-17T00:30:32.918Z,19.50
2017-08-17T00:33:00.104Z,19.51
2017-08-17T00:35:27.679Z,19.51
2017-08-17T00:37:54.864Z,19.51
2017-08-17T00:40:22.255Z,19.51
2017-08-17T00:42:50.205Z,19.52
2017-08-17T00:45:17.377Z,19.56
2017-08-17T00:47:44.560Z,19.61
2017-08-17T00:50:12.001Z,19.66
2017-08-17T00:52:39.570Z,19.68
2017-08-17T00:55:07.338Z,19.73
2017-08-17T00:57:34.777Z,19.76
2017-08-17T01:00:02.249Z,19.76
2017-08-17T01:02:30.188Z,19.69
2017-08-17T01:04:57.408Z,19.64
2017-08-17T01:07:24.612Z,19.61
2017-08-17T01:09:52.073Z,19.59
2017-08-17T01:12:19.245Z,19.58
2017-08-17T01:14:46.680Z,19.57
2017-08-17T01:17:14.194Z,19.57
2017-08-17T01:19:41.369Z,19.56
2017-08-17T01:22:08.539Z,19.56
2017-08-17T01:24:35.723Z,19.56
2017-08-17T01:27:03.045Z,19.55
2017-08-17T01:29:30.217Z,19.56
2017-08-17T01:31:57.599Z,19.55
2017-08-17T01:34:24.801Z,19.55
2017-08-17T01:36:51.996Z,19.55
2017-08-17T01:39:19.410Z,19.55
2017-08-17T01:41:46.864Z,19.54
2017-08-17T01:44:14.325Z,19.53
2017-08-17T01:46:41.772Z,19.54
2017-08-17T01:49:08.959Z,19.54
2017-08-17T01:51:36.590Z,19.54
2017-08-17T01:54:03.766Z,19.54
2017-08-17T01:56:31.182Z,19.54
2017-08-17T01:58:58.452Z,19.54
2017-08-17T02:01:26.112Z,19.54
2017-08-17T02:03:53.280Z,19.54
2017-08-17T02:06:20.517Z,19.53
2017-08-17T02:08:47.704Z,19.53
2017-08-17T02:11:15.119Z,19.53
2017-08-17T02:13:42.586Z,19.53
2017-08-17T02:16:10.036Z,19.53
2017-08-17T02:18:37.496Z,19.53
2017-08-17T02:21:04.680Z,19.54
2017-08-17T02:23:32.101Z,19.53
2017-08-17T02:25:59.292Z,19.53
2017-08-17T02:28:26.475Z,19.53
2017-08-17T02:30:53.663Z,19.53
2017-08-17T02:33:21.013Z,19.52
2017-08-17T02:35:48.465Z,19.53
2017-08-17T02:38:15.925Z,19.53
2017-08-17T02:40:43.112Z,19.53
2017-08-17T02:43:10.295Z,19.53
2017-08-17T02:45:37.684Z,19.53
2017-08-17T02:48:04.867Z,19.53
2017-08-17T02:50:32.040Z,19.53
2017-08-17T02:52:59.223Z,19.53
2017-08-17T02:55:26.411Z,19.53
2017-08-17T02:57:53.581Z,19.53
2017-08-17T03:00:20.894Z,19.52
2017-08-17T03:02:48.426Z,19.52
2017-08-17T03:05:15.612Z,19.53
2017-08-17T03:07:42.959Z,19.52
2017-08-17T03:10:10.147Z,19.52
2017-08-17T03:12:37.335Z,19.51
2017-08-17T03:15:04.519Z,19.52
2017-08-17T03:17:31.856Z,19.52
2017-08-17T03:19:59.098Z,19.50
2017-08-17T03:22:26.463Z,19.52
2017-08-17T03:24:54.111Z,19.52
2017-08-17T03:27:21.696Z,19.52
2017-08-17T03:29:48.865Z,19.51
2017-08-17T03:32:16.047Z,19.52
2017-08-17T03:34:43.632Z,19.52
2017-08-17T03:37:11.217Z,19.52
2017-08-17T03:39:38.866Z,19.51
2017-08-17T03:42:06.126Z,19.52
2017-08-17T03:44:33.294Z,19.51
2017-08-17T03:47:00.481Z,19.51
2017-08-17T03:49:27.653Z,19.51
2017-08-17T03:51:54.831Z,19.51
2017-08-17T03:54:22.016Z,19.51
2017-08-17T03:56:49.342Z,19.51
2017-08-17T03:59:16.513Z,19.51
2017-08-17T04:01:43.934Z,19.51
2017-08-17T04:04:11.593Z,19.52
2017-08-17T04:06:39.168Z,19.51
2017-08-17T04:09:06.615Z,19.56
2017-08-17T04:11:33.804Z,19.61
2017-08-17T04:14:00.988Z,19.68
2017-08-17T04:16:28.377Z,19.71
2017-08-17T04:18:55.568Z,19.76
2017-08-17T04:21:22.792Z,19.77
2017-08-17T04:23:49.976Z,19.70
2017-08-17T04:26:17.154Z,19.66
2017-08-17T04:28:44.434Z,19.60
2017-08-17T04:31:12.203Z,19.59
2017-08-17T04:33:39.387Z,19.58
2017-08-17T04:36:06.810Z,19.61
2017-08-17T04:38:34.440Z,19.61
2017-08-17T04:41:01.723Z,19.61
2017-08-17T04:43:29.491Z,19.60
2017-08-17T04:45:56.675Z,19.59
2017-08-17T04:48:23.841Z,19.59
2017-08-17T04:50:51.023Z,19.58
2017-08-17T04:53:18.211Z,19.57
2017-08-17T04:55:45.738Z,19.57
2017-08-17T04:58:18.340Z,19.54
2017-08-17T05:00:45.598Z,19.55
2017-08-17T05:03:12.784Z,19.55
2017-08-17T05:05:40.414Z,19.55
2017-08-17T05:08:07.677Z,19.55
2017-08-17T05:10:34.858Z,19.55
2017-08-17T05:13:02.959Z,19.54
2017-08-17T05:15:30.129Z,19.55
2017-08-17T05:17:57.375Z,19.55
2017-08-17T05:20:24.726Z,19.54
2017-08-17T05:22:51.911Z,19.54
2017-08-17T05:25:19.324Z,19.54
2017-08-17T05:27:46.512Z,19.54
2017-08-17T05:30:14.250Z,19.54
2017-08-17T05:32:41.439Z,19.54
2017-08-17T05:35:08.617Z,19.54
2017-08-17T05:37:35.793Z,19.54
2017-08-17T05:40:02.975Z,19.53
2017-08-17T05:42:30.300Z,19.53
2017-08-17T05:44:58.681Z,19.54
2017-08-17T05:47:25.877Z,19.54
2017-08-17T05:49:53.599Z,19.54
2017-08-17T05:52:20.791Z,19.53
2017-08-17T05:54:48.206Z,19.54
2017-08-17T05:57:15.656Z,19.54
2017-08-17T05:59:43.296Z,19.54
2017-08-17T06:02:10.479Z,19.54
2017-08-17T06:04:38.006Z,19.54
2017-08-17T06:07:06.106Z,19.53
2017-08-17T06:09:33.277Z,19.54
2017-08-17T06:12:00.785Z,19.52
2017-08-17T06:14:28.175Z,19.53
2017-08-17T06:16:55.620Z,19.53
2017-08-17T06:19:23.137Z,19.53
2017-08-17T06:21:50.538Z,19.53
2017-08-17T06:24:18.173Z,19.54
2017-08-17T06:26:45.765Z,19.53
2017-08-17T06:29:12.936Z,19.52
2017-08-17T06:31:40.119Z,19.53
2017-08-17T06:34:07.514Z,19.52
2017-08-17T06:36:34.974Z,19.53
2017-08-17T06:39:02.529Z,19.53
2017-08-17T06:41:30.097Z,19.53
2017-08-17T06:43:57.288Z,19.52
2017-08-17T06:46:24.556Z,19.52
2017-08-17T06:48:52.573Z,19.53
2017-08-17T06:51:19.755Z,19.52
2017-08-17T06:53:46.926Z,19.52
2017-08-17T06:56:14.637Z,19.53
2017-08-17T06:58:41.806Z,19.53
2017-08-17T07:01:09.362Z,19.53
2017-08-17T07:03:36.906Z,19.52
2017-08-17T07:06:04.324Z,19.52
2017-08-17T07:08:31.789Z,19.52
2017-08-17T07:10:58.973Z,19.51
2017-08-17T07:13:26.375Z,19.51
2017-08-17T07:15:53.565Z,19.51
2017-08-17T07:18:20.748Z,19.51
2017-08-17T07:20:48.003Z,19.52
2017-08-17T07:23:15.496Z,19.51
2017-08-17T07:25:42.894Z,19.56
2017-08-17T07:28:10.346Z,19.60
2017-08-17T07:30:37.996Z,19.66
2017-08-17T07:33:05.188Z,19.73
2017-08-17T07:35:32.416Z,19.74
2017-08-17T07:37:59.865Z,19.77
2017-08-17T07:40:27.037Z,19.78
2017-08-17T07:42:54.577Z,19.72
2017-08-17T07:45:21.763Z,19.66
2017-08-17T07:47:49.019Z,19.63
2017-08-17T07:50:16.229Z,19.61
2017-08-17T07:52:43.402Z,19.60
2017-08-17T07:55:11.052Z,19.58
2017-08-17T07:57:38.291Z,19.58
2017-08-17T08:00:05.488Z,19.58
2017-08-17T08:02:33.103Z,19.57
2017-08-17T08:05:00.288Z,19.56
2017-08-17T08:07:27.563Z,19.57
2017-08-17T08:09:55.181Z,19.57
2017-08-17T08:12:22.363Z,19.57
2017-08-17T08:14:49.767Z,19.57
2017-08-17T08:17:17.032Z,19.56
2017-08-17T08:19:44.220Z,19.56
2017-08-17T08:22:11.637Z,19.56
2017-08-17T08:24:38.828Z,19.56
2017-08-17T08:27:05.997Z,19.54
2017-08-17T08:29:33.169Z,19.56
2017-08-17T08:32:00.339Z,19.55
2017-08-17T08:34:28.617Z,19.54
2017-08-17T08:36:55.800Z,19.55
2017-08-17T08:39:23.213Z,19.54
2017-08-17T08:41:50.558Z,19.54
2017-08-17T08:44:17.733Z,19.55
2017-08-17T08:46:44.980Z,19.54
2017-08-17T08:49:12.158Z,19.54
2017-08-17T08:51:39.340Z,19.54
2017-08-17T08:54:06.923Z,19.54
2017-08-17T08:56:34.098Z,19.54
2017-08-17T08:59:01.288Z,19.54
2017-08-17T09:01:28.550Z,19.54
2017-08-17T09:03:56.093Z,19.54
2017-08-17T09:06:23.284Z,19.54
2017-08-17T09:08:50.874Z,19.54
2017-08-17T09:11:18.045Z,19.54
2017-08-17T09:13:45.540Z,19.54
2017-08-17T09:16:12.728Z,19.53
2017-08-17T09:18:39.906Z,19.54
2017-08-17T09:21:07.073Z,19.54
2017-08-17T09:23:34.560Z,19.54
2017-08-17T09:26:01.751Z,19.54
2017-08-17T09:28:28.989Z,19.53
2017-08-17T09:30:56.193Z,19.54
2017-08-17T09:33:23.362Z,19.54
2017-08-17T09:35:50.823Z,19.54
2017-08-17T09:38:18.010Z,19.54
2017-08-17T09:40:45.199Z,19.53
2017-08-17T09:43:12.699Z,19.54
2017-08-17T09:45:39.955Z,19.53
2017-08-17T09:48:07.144Z,19.53
2017-08-17T09:50:34.882Z,19.54
2017-08-17T09:53:02.339Z,19.53
2017-08-17T09:55:29.534Z,19.53
2017-08-17T09:57:56.940Z,19.54
2017-08-17T10:00:24.575Z,19.52
2017-08-17T10:02:52.165Z,19.53
2017-08-17T10:05:19.351Z,19.53
2017-08-17T10:07:46.521Z,19.52
2017-08-17T10:10:14.124Z,19.52
2017-08-17T10:12:41.294Z,19.51
2017-08-17T10:15:08.757Z,19.53
2017-08-17T10:17:36.935Z,19.53
2017-08-17T10:20:04.106Z,19.54
2017-08-17T10:22:31.292Z,19.53
2017-08-17T10:24:58.659Z,19.54
2017-08-17T10:27:25.856Z,19.54
2017-08-17T10:29:53.583Z,19.54
2017-08-17T10:32:20.778Z,19.53
2017-08-17T10:34:48.299Z,19.53
2017-08-17T10:37:15.479Z,19.53
2017-08-17T10:39:43.102Z,19.53
2017-08-17T10:42:10.624Z,19.53
2017-08-17T10:44:38.116Z,19.53
2017-08-17T10:47:05.302Z,19.57
2017-08-17T10:49:32.495Z,19.62
2017-08-17T10:51:59.969Z,19.67
2017-08-17T10:54:27.140Z,19.70
2017-08-17T10:56:54.559Z,19.73
2017-08-17T10:59:21.747Z,19.78
2017-08-17T11:01:49.299Z,19.76
2017-08-17T11:04:16.479Z,19.69
2017-08-17T11:06:44.001Z,19.65
2017-08-17T11:09:11.543Z,19.61
2017-08-17T11:11:39.127Z,19.60
2017-08-17T11:14:06.577Z,19.59
2017-08-17T11:16:34.221Z,19.58
2017-08-17T11:19:01.806Z,19.59
2017-08-17T11:21:29.001Z,19.58
2017-08-17T11:23:56.189Z,19.58
2017-08-17T11:26:23.374Z,19.57
2017-08-17T11:28:50.559Z,19.57
2017-08-17T11:31:17.927Z,19.57
2017-08-17T11:33:45.115Z,19.57
2017-08-17T11:36:12.298Z,19.57
2017-08-17T11:38:39.614Z,19.57
2017-08-17T11:41:07.272Z,19.57
2017-08-17T11:43:34.470Z,19.57
2017-08-17T11:46:01.805Z,19.56
2017-08-17T11:48:28.996Z,19.57
2017-08-17T11:50:55.611Z,19.56
2017-08-17T11:53:22.827Z,19.57
2017-08-17T11:55:50.276Z,19.56
2017-08-17T11:58:17.460Z,19.56
2017-08-17T12:00:44.936Z,19.55
2017-08-17T12:03:12.110Z,19.56
2017-08-17T12:05:39.806Z,19.56
2017-08-17T12:08:07.065Z,19.56
2017-08-17T12:10:34.404Z,19.56
2017-08-17T12:13:01.587Z,19.56
2017-08-17T12:15:29.012Z,19.55
2017-08-17T12:17:56.181Z,19.55
2017-08-17T12:20:23.621Z,19.54
2017-08-17T12:22:51.084Z,19.55
2017-08-17T12:25:18.258Z,19.56
2017-08-17T12:27:45.807Z,19.56
2017-08-17T12:30:13.324Z,19.56
2017-08-17T12:32:40.495Z,19.56
2017-08-17T12:35:07.748Z,19.56
2017-08-17T12:37:35.205Z,19.56
2017-08-17T12:40:02.408Z,19.55
2017-08-17T12:42:29.988Z,19.56
2017-08-17T12:44:57.269Z,19.56
2017-08-17T12:47:24.922Z,19.55
2017-08-17T12:49:52.110Z,19.56
2017-08-17T12:52:19.530Z,19.55
2017-08-17T12:54:47.104Z,19.55
2017-08-17T12:57:14.277Z,19.56
2017-08-17T12:59:41.449Z,19.55
2017-08-17T13:02:08.855Z,19.55
2017-08-17T13:04:36.373Z,19.54
2017-08-17T13:07:03.779Z,19.56
2017-08-17T13:09:30.953Z,19.56
2017-08-17T13:11:58.136Z,19.54
2017-08-17T13:14:25.529Z,19.56
2017-08-17T13:16:52.712Z,19.55
2017-08-17T13:19:20.138Z,19.55
2017-08-17T13:21:47.599Z,19.54
2017-08-17T13:24:15.365Z,19.55
2017-08-17T13:26:42.881Z,19.54
2017-08-17T13:29:10.121Z,19.54
2017-08-17T13:31:37.420Z,19.54
2017-08-17T13:34:04.598Z,19.54
2017-08-17T13:36:32.152Z,19.54
2017-08-17T13:38:59.336Z,19.54
2017-08-17T13:41:26.642Z,19.54
2017-08-17T13:43:54.090Z,19.54
2017-08-17T13:46:21.284Z,19.55
2017-08-17T13:48:48.454Z,19.55
2017-08-17T13:51:15.639Z,19.55
2017-08-17T13:53:42.813Z,19.55
2017-08-17T13:56:10.151Z,19.55
2017-08-17T13:58:37.317Z,19.54
2017-08-17T14:01:04.757Z,19.54
2017-08-17T14:03:31.947Z,19.54
2017-08-17T14:05:59.117Z,19.55
2017-08-17T14:08:26.632Z,19.54
2017-08-17T14:10:53.806Z,19.55
2017-08-17T14:13:21.316Z,19.56
2017-08-17T14:15:48.485Z,19.59
2017-08-17T14:18:15.737Z,19.64
2017-08-17T14:20:43.249Z,19.70
2017-08-17T14:23:10.421Z,19.74
2017-08-17T14:25:37.591Z,19.76
2017-08-17T14:28:04.944Z,19.80
2017-08-17T14:30:32.127Z,19.75
2017-08-17T14:32:59.865Z,19.69
2017-08-17T14:35:27.316Z,19.65
2017-08-17T14:37:54.807Z,19.63
2017-08-17T14:40:21.973Z,19.61
2017-08-17T14:42:49.386Z,19.60
2017-08-17T14:45:16.836Z,19.60
2017-08-17T14:47:44.292Z,19.59
2017-08-17T14:50:11.753Z,19.59
2017-08-17T14:52:38.923Z,19.59
2017-08-17T14:55:06.357Z,19.59
2017-08-17T14:57:33.817Z,19.58
2017-08-17T15:00:00.999Z,19.58
2017-08-17T15:02:28.173Z,19.57
2017-08-17T15:04:55.436Z,19.57
2017-08-17T15:07:22.724Z,19.58
2017-08-17T15:09:49.893Z,19.57
2017-08-17T15:12:17.065Z,19.57
2017-08-17T15:14:44.248Z,19.58
2017-08-17T15:17:11.824Z,19.57
2017-08-17T15:19:39.007Z,19.58
2017-08-17T15:22:06.435Z,19.57
2017-08-17T15:24:33.694Z,19.58
2017-08-17T15:27:01.155Z,19.58
2017-08-17T15:29:28.535Z,19.57
2017-08-17T15:31:55.755Z,19.57
2017-08-17T15:34:23.399Z,19.57
2017-08-17T15:36:50.639Z,19.57
2017-08-17T15:39:18.751Z,19.57
2017-08-17T15:41:45.936Z,19.57
2017-08-17T15:44:13.418Z,19.56
2017-08-17T15:46:40.590Z,19.56
2017-08-17T15:49:07.773Z,19.56
2017-08-17T15:51:35.173Z,19.56
2017-08-17T15:54:02.347Z,19.56
2017-08-17T15:56:29.724Z,19.56
2017-08-17T15:58:56.910Z,19.57
2017-08-17T16:01:24.358Z,19.57
2017-08-17T16:03:51.544Z,19.57
2017-08-17T16:06:19.027Z,19.57
2017-08-17T16:08:46.569Z,19.57
2017-08-17T16:11:13.916Z,19.56
2017-08-17T16:13:41.080Z,19.56
2017-08-17T16:16:08.768Z,19.56
2017-08-17T16:18:35.955Z,19.57
2017-08-17T16:21:03.143Z,19.56
2017-08-17T16:23:30.332Z,19.56
2017-08-17T16:25:57.743Z,19.56
2017-08-17T16:28:25.124Z,19.56
2017-08-17T16:30:52.296Z,19.56
2017-08-17T16:33:19.796Z,19.56
2017-08-17T16:35:47.188Z,19.56
2017-08-17T16:38:14.650Z,19.56
2017-08-17T16:40:41.841Z,19.56
2017-08-17T16:43:09.017Z,19.56
2017-08-17T16:45:36.258Z,19.55
2017-08-17T16:48:03.868Z,19.55
2017-08-17T16:50:31.041Z,19.55
2017-08-17T16:52:58.477Z,19.55
2017-08-17T16:55:25.654Z,19.56
2017-08-17T16:57:53.148Z,19.55
2017-08-17T17:00:20.537Z,19.55
2017-08-17T17:02:47.987Z,19.55
2017-08-17T17:05:15.447Z,19.55
2017-08-17T17:07:42.904Z,19.55
2017-08-17T17:10:10.680Z,19.55
2017-08-17T17:12:37.845Z,19.56
2017-08-17T17:15:05.347Z,19.55
2017-08-17T17:17:32.738Z,19.55
2017-08-17T17:20:00.332Z,19.54
2017-08-17T17:22:27.961Z,19.56
2017-08-17T17:24:55.367Z,19.55
2017-08-17T17:27:22.547Z,19.56
2017-08-17T17:29:50.077Z,19.55
2017-08-17T17:32:17.477Z,19.55
2017-08-17T17:34:44.645Z,19.55
2017-08-17T17:37:12.154Z,19.54
2017-08-17T17:39:39.395Z,19.55
2017-08-17T17:42:06.571Z,19.57
2017-08-17T17:44:34.036Z,19.62
2017-08-17T17:47:01.296Z,19.67
2017-08-17T17:49:28.756Z,19.72
2017-08-17T17:51:56.208Z,19.75
2017-08-17T17:54:23.377Z,19.79
2017-08-17T17:56:50.815Z,19.79
2017-08-17T17:59:18.021Z,19.73
2017-08-17T18:01:45.200Z,19.69
2017-08-17T18:04:12.382Z,19.65
2017-08-17T18:06:39.737Z,19.63
2017-08-17T18:09:06.915Z,19.63
2017-08-17T18:11:34.340Z,19.61
2017-08-17T18:14:01.970Z,19.60
2017-08-17T18:16:29.138Z,19.60
2017-08-17T18:18:56.319Z,19.60
2017-08-17T18:21:23.500Z,19.60
2017-08-17T18:23:50.673Z,19.59
2017-08-17T18:26:18.957Z,19.60
2017-08-17T18:28:46.141Z,19.59
2017-08-17T18:31:13.311Z,19.59
2017-08-17T18:33:40.528Z,19.59
2017-08-17T18:36:08.176Z,19.59
2017-08-17T18:38:35.756Z,19.59
2017-08-17T18:41:03.264Z,19.58
2017-08-17T18:43:30.455Z,19.58
2017-08-17T18:45:57.625Z,19.59
2017-08-17T18:48:24.793Z,19.59
2017-08-17T18:50:52.117Z,19.59
2017-08-17T18:53:19.626Z,19.59
2017-08-17T18:55:47.142Z,19.59
2017-08-17T18:58:14.484Z,19.58
2017-08-17T19:00:42.054Z,19.58
2017-08-17T19:03:09.242Z,19.58
2017-08-17T19:05:36.861Z,19.58
2017-08-17T19:08:04.311Z,19.59
2017-08-17T19:10:32.115Z,19.59
2017-08-17T19:12:59.717Z,19.58
2017-08-17T19:15:27.002Z,19.57
2017-08-17T19:17:54.799Z,19.58
2017-08-17T19:20:21.974Z,19.58
2017-08-17T19:22:49.488Z,19.58
2017-08-17T19:25:16.689Z,19.58
2017-08-17T19:27:43.974Z,19.58
2017-08-17T19:30:11.149Z,19.58
2017-08-17T19:32:38.576Z,19.58
2017-08-17T19:35:06.038Z,19.58
2017-08-17T19:37:33.493Z,19.58
2017-08-17T19:40:01.136Z,19.58
2017-08-17T19:42:28.408Z,19.58
2017-08-17T19:44:55.819Z,19.58
2017-08-17T19:47:23.324Z,19.58
2017-08-17T19:49:50.777Z,19.58
2017-08-17T19:52:50.526Z,19.58
2017-08-17T19:55:17.949Z,19.58
2017-08-17T19:57:45.414Z,19.58
2017-08-17T20:00:12.869Z,19.58
2017-08-17T20:02:40.377Z,19.58
2017-08-17T20:05:07.780Z,19.57
2017-08-17T20:07:35.228Z,19.58
2017-08-17T20:10:02.456Z,19.57
2017-08-17T20:12:29.923Z,19.58
2017-08-17T20:14:57.309Z,19.57
2017-08-17T20:17:24.795Z,19.57
2017-08-17T20:19:51.963Z,19.57
2017-08-17T20:22:19.357Z,19.57
2017-08-17T20:24:46.548Z,19.57
2017-08-17T20:27:13.972Z,19.57
2017-08-17T20:29:41.139Z,19.58
2017-08-17T20:32:08.689Z,19.58
2017-08-17T20:34:36.441Z,19.57
2017-08-17T20:37:03.609Z,19.57
2017-08-17T20:39:30.953Z,19.57
2017-08-17T20:41:58.160Z,19.57
2017-08-17T20:44:25.871Z,19.57
2017-08-17T20:46:53.065Z,19.57
2017-08-17T20:49:20.241Z,19.57
2017-08-17T20:51:47.731Z,19.57
2017-08-17T20:54:15.080Z,19.57
2017-08-17T20:56:42.258Z,19.57
2017-08-17T20:59:09.691Z,19.57
2017-08-17T21:01:36.868Z,19.57
2017-08-17T21:04:04.301Z,19.58
2017-08-17T21:06:31.814Z,19.61
2017-08-17T21:08:58.995Z,19.59
2017-08-17T21:11:26.422Z,19.55
2017-08-17T21:13:53.817Z,19.54
2017-08-17T21:16:21.273Z,19.55
2017-08-17T21:18:48.442Z,19.56
2017-08-17T21:21:16.116Z,19.60
2017-08-17T21:23:43.286Z,19.67
2017-08-17T21:26:10.487Z,19.72
2017-08-17T21:28:37.945Z,19.78
2017-08-17T21:31:05.400Z,19.82
2017-08-17T21:33:32.574Z,19.86
2017-08-17T21:36:00.009Z,19.88
2017-08-17T21:38:27.364Z,19.82
2017-08-17T21:40:54.930Z,19.76
2017-08-17T21:43:22.098Z,19.71
2017-08-17T21:45:49.841Z,19.68
2017-08-17T21:48:17.486Z,19.67
2017-08-17T21:50:45.066Z,19.65
2017-08-17T21:53:12.443Z,19.64
2017-08-17T21:55:39.631Z,19.64
2017-08-17T21:58:07.561Z,19.64
2017-08-17T22:00:34.948Z,19.63
2017-08-17T22:03:02.466Z,19.63
2017-08-17T22:05:29.683Z,19.63
2017-08-17T22:07:56.958Z,19.62
2017-08-17T22:10:24.723Z,19.61
2017-08-17T22:12:51.889Z,19.61
2017-08-17T22:15:19.054Z,19.61
2017-08-17T22:17:46.215Z,19.61
2017-08-17T22:20:13.738Z,19.60
2017-08-17T22:22:40.905Z,19.61
2017-08-17T22:25:08.424Z,19.61
2017-08-17T22:27:35.742Z,19.60
2017-08-17T22:30:03.267Z,19.60
2017-08-17T22:32:30.600Z,19.59
2017-08-17T22:34:58.066Z,19.60
2017-08-17T22:37:25.257Z,19.59
2017-08-17T22:39:52.422Z,19.59
2017-08-17T22:42:19.948Z,19.59
2017-08-17T22:44:47.127Z,19.59
2017-08-17T22:47:14.422Z,19.59
2017-08-17T22:49:41.951Z,19.59
2017-08-17T22:52:09.341Z,19.59
2017-08-17T22:54:36.796Z,19.59
2017-08-17T22:57:04.329Z,19.59
2017-08-17T22:59:31.708Z,19.59
2017-08-17T23:01:58.877Z,19.59
2017-08-17T23:04:26.320Z,19.59
2017-08-17T23:06:54.121Z,19.58
2017-08-17T23:09:21.562Z,19.59
2017-08-17T23:11:48.742Z,19.58
2017-08-17T23:14:15.948Z,19.59
2017-08-17T23:16:43.297Z,19.59
2017-08-17T23:19:10.752Z,19.59
2017-08-17T23:21:37.938Z,19.59
2017-08-17T23:24:05.362Z,19.59
2017-08-17T23:26:32.538Z,19.59
2017-08-17T23:28:59.969Z,19.58
2017-08-17T23:31:27.147Z,19.58
2017-08-17T23:33:54.609Z,19.59
2017-08-17T23:36:22.035Z,19.59
2017-08-17T23:38:49.679Z,19.58
2017-08-17T23:41:16.860Z,19.58
2017-08-17T23:43:44.161Z,19.58
2017-08-17T23:46:11.334Z,19.59
2017-08-17T23:48:38.515Z,19.58
2017-08-17T23:51:05.918Z,19.58
2017-08-17T23:53:33.433Z,19.58
2017-08-17T23:56:00.623Z,19.58
2017-08-17T23:58:28.232Z,19.59
